Mountain View, CA (94035)

1:00 AM PST on December 10, 2016 (GMT -0800)
North Whisman | | Change Station

Elev 46 ft 37.41 °N, 122.06 °W | Updated 12 seconds ago

Overcast
Overcast
62.4 °F
Feels Like 62.4 °F
N
0.0
Wind Variable Wind from WSW
Gusts 0.0 mph

Today
High -- | Low -- °F
--% Chance of Precip.
Yesterday
High -- | Low -- °F
Precip. -- in
Pressure 30.14 in
Visibility 10.0 miles
Clouds Overcast 3900 ft
Dew Point 57 °F
Humidity 83%
Rainfall 0.00 in
Snow Depth Not available.
7:12 AM 4:50 PM
Waxing Gibbous, 82% visible
METAR KNUQ 100856Z 13008KT 10SM -RA OVC039 17/13 A3013 RMK AO2 RAB51 SLP205 P0000 60000 T01670133 58001
Pressure 30.14 in
Visibility 10.0 miles
Clouds Overcast 3900 ft
Dew Point 57 °F
Humidity 83%
Rainfall 0.00 in
Snow Depth Not available.
7:12 AM 4:50 PM
Waxing Gibbous, 82% visible
METAR KNUQ 100856Z 13008KT 10SM -RA OVC039 17/13 A3013 RMK AO2 RAB51 SLP205 P0000 60000 T01670133 58001

10-Day Weather Forecast

Almanac

Astronomy

Dec. 10, 2016 Rise Set
Actual Time
Civil Twilight
Nautical Twilight
Astronomical Twilight
Moon
Length of Visible Light
Length of Day
Tomorrow will be .
, % of the Moon is Illuminated

Today's Extremes

State Highs State Lows

Community

WunderPhotos

Upload Photos

1,956,538 photos uploaded!

WunderBlog® & News

Nearby

Air Quality

  Air Quality AQ Index Pollutant
Not available.

Snow Depth

Station Depth Elevation

Earthquake Activity

City Distance Mag. Time & Date
Minimum magnitude displayed is 2.5.

Coastal Water Temperatures

Place Temperature

Stations

Nearby Weather Stations

Station Location Temp. Windchill Dew Point Humidity Wind Precip. Elev Updated Type
                   

Watches & Warnings

There are currently no watches in effect.